sensor_id;sensor_type;location;lat;lon;timestamp;P1;durP1;ratioP1;P2;durP2;ratioP2
66923;SDS011;53835;47.984;7.844;2022-09-24T00:01:36;8.47;;;4.53;;
66923;SDS011;53835;47.984;7.844;2022-09-24T00:04:05;7.97;;;4.40;;
66923;SDS011;53835;47.984;7.844;2022-09-24T00:06:35;6.37;;;3.97;;
66923;SDS011;53835;47.984;7.844;2022-09-24T00:09:02;5.30;;;4.13;;
66923;SDS011;53835;47.984;7.844;2022-09-24T00:11:29;5.17;;;4.30;;
66923;SDS011;53835;47.984;7.844;2022-09-24T00:13:57;6.73;;;4.50;;
66923;SDS011;53835;47.984;7.844;2022-09-24T00:16:26;5.17;;;4.30;;
66923;SDS011;53835;47.984;7.844;2022-09-24T00:18:53;7.30;;;4.27;;
66923;SDS011;53835;47.984;7.844;2022-09-24T00:21:22;5.43;;;4.67;;
66923;SDS011;53835;47.984;7.844;2022-09-24T00:23:50;4.87;;;4.47;;
66923;SDS011;53835;47.984;7.844;2022-09-24T00:26:18;6.90;;;4.90;;
66923;SDS011;53835;47.984;7.844;2022-09-24T00:29:03;7.67;;;4.87;;
66923;SDS011;53835;47.984;7.844;2022-09-24T00:31:31;6.83;;;4.70;;
66923;SDS011;53835;47.984;7.844;2022-09-24T00:33:58;5.23;;;4.70;;
66923;SDS011;53835;47.984;7.844;2022-09-24T00:36:26;6.43;;;5.43;;
66923;SDS011;53835;47.984;7.844;2022-09-24T00:38:54;9.00;;;5.20;;
66923;SDS011;53835;47.984;7.844;2022-09-24T00:41:23;6.63;;;5.23;;
66923;SDS011;53835;47.984;7.844;2022-09-24T00:43:51;6.93;;;5.57;;
66923;SDS011;53835;47.984;7.844;2022-09-24T00:48:47;6.47;;;4.93;;
66923;SDS011;53835;47.984;7.844;2022-09-24T00:51:17;7.00;;;4.60;;
66923;SDS011;53835;47.984;7.844;2022-09-24T00:53:45;6.03;;;4.80;;
66923;SDS011;53835;47.984;7.844;2022-09-24T00:56:13;5.13;;;4.63;;
66923;SDS011;53835;47.984;7.844;2022-09-24T00:58:45;5.90;;;4.77;;
66923;SDS011;53835;47.984;7.844;2022-09-24T01:01:12;7.57;;;5.43;;
66923;SDS011;53835;47.984;7.844;2022-09-24T01:03:40;9.23;;;4.77;;
66923;SDS011;53835;47.984;7.844;2022-09-24T01:06:08;6.70;;;5.10;;
66923;SDS011;53835;47.984;7.844;2022-09-24T01:08:35;5.97;;;4.90;;
66923;SDS011;53835;47.984;7.844;2022-09-24T01:21:35;7.20;;;5.00;;
66923;SDS011;53835;47.984;7.844;2022-09-24T01:26:56;6.77;;;4.70;;
66923;SDS011;53835;47.984;7.844;2022-09-24T01:29:43;6.03;;;4.40;;
66923;SDS011;53835;47.984;7.844;2022-09-24T01:34:48;8.03;;;4.30;;
66923;SDS011;53835;47.984;7.844;2022-09-24T01:37:16;6.37;;;4.70;;
66923;SDS011;53835;47.984;7.844;2022-09-24T01:39:44;7.83;;;4.57;;
66923;SDS011;53835;47.984;7.844;2022-09-24T01:42:13;6.93;;;4.20;;
66923;SDS011;53835;47.984;7.844;2022-09-24T01:44:41;6.77;;;4.20;;
66923;SDS011;53835;47.984;7.844;2022-09-24T01:47:11;4.43;;;4.03;;
66923;SDS011;53835;47.984;7.844;2022-09-24T01:49:38;6.63;;;4.07;;
66923;SDS011;53835;47.984;7.844;2022-09-24T01:52:06;7.13;;;4.73;;
66923;SDS011;53835;47.984;7.844;2022-09-24T01:54:36;7.77;;;4.30;;
66923;SDS011;53835;47.984;7.844;2022-09-24T01:57:11;7.27;;;4.73;;
66923;SDS011;53835;47.984;7.844;2022-09-24T01:59:55;6.00;;;4.47;;
66923;SDS011;53835;47.984;7.844;2022-09-24T02:02:21;6.13;;;4.53;;
66923;SDS011;53835;47.984;7.844;2022-09-24T02:04:52;8.50;;;4.73;;
66923;SDS011;53835;47.984;7.844;2022-09-24T02:07:22;7.33;;;5.03;;
66923;SDS011;53835;47.984;7.844;2022-09-24T02:09:48;7.33;;;4.80;;
66923;SDS011;53835;47.984;7.844;2022-09-24T02:14:50;10.00;;;4.67;;
66923;SDS011;53835;47.984;7.844;2022-09-24T02:17:13;7.37;;;5.00;;
66923;SDS011;53835;47.984;7.844;2022-09-24T02:19:41;6.97;;;5.50;;
66923;SDS011;53835;47.984;7.844;2022-09-24T02:22:09;6.70;;;4.77;;
66923;SDS011;53835;47.984;7.844;2022-09-24T02:24:41;5.33;;;4.83;;
66923;SDS011;53835;47.984;7.844;2022-09-24T02:27:07;6.63;;;5.07;;
66923;SDS011;53835;47.984;7.844;2022-09-24T02:29:35;5.60;;;5.03;;
66923;SDS011;53835;47.984;7.844;2022-09-24T02:32:02;5.30;;;4.80;;
66923;SDS011;53835;47.984;7.844;2022-09-24T02:34:32;5.87;;;4.80;;
66923;SDS011;53835;47.984;7.844;2022-09-24T02:37:05;7.63;;;4.40;;
66923;SDS011;53835;47.984;7.844;2022-09-24T02:39:32;8.37;;;4.70;;
66923;SDS011;53835;47.984;7.844;2022-09-24T02:41:59;6.27;;;5.23;;
66923;SDS011;53835;47.984;7.844;2022-09-24T02:44:27;7.70;;;4.73;;
66923;SDS011;53835;47.984;7.844;2022-09-24T02:46:56;5.73;;;5.13;;
66923;SDS011;53835;47.984;7.844;2022-09-24T02:49:23;5.93;;;5.33;;
66923;SDS011;53835;47.984;7.844;2022-09-24T02:51:50;8.27;;;5.10;;
66923;SDS011;53835;47.984;7.844;2022-09-24T02:54:18;5.83;;;5.00;;
66923;SDS011;53835;47.984;7.844;2022-09-24T02:56:45;6.00;;;5.20;;
66923;SDS011;53835;47.984;7.844;2022-09-24T02:59:12;6.97;;;5.30;;
66923;SDS011;53835;47.984;7.844;2022-09-24T03:01:40;7.87;;;5.47;;
66923;SDS011;53835;47.984;7.844;2022-09-24T03:04:07;7.40;;;5.60;;
66923;SDS011;53835;47.984;7.844;2022-09-24T03:06:35;6.90;;;4.77;;
66923;SDS011;53835;47.984;7.844;2022-09-24T03:09:02;5.63;;;4.90;;
66923;SDS011;53835;47.984;7.844;2022-09-24T03:11:30;7.47;;;4.80;;
66923;SDS011;53835;47.984;7.844;2022-09-24T03:13:58;5.97;;;5.37;;
66923;SDS011;53835;47.984;7.844;2022-09-24T03:16:26;6.70;;;5.50;;
66923;SDS011;53835;47.984;7.844;2022-09-24T03:18:53;6.60;;;5.47;;
66923;SDS011;53835;47.984;7.844;2022-09-24T03:21:21;5.70;;;5.20;;
66923;SDS011;53835;47.984;7.844;2022-09-24T03:23:48;5.00;;;4.50;;
66923;SDS011;53835;47.984;7.844;2022-09-24T03:26:16;4.43;;;3.90;;
66923;SDS011;53835;47.984;7.844;2022-09-24T03:28:43;4.87;;;3.90;;
66923;SDS011;53835;47.984;7.844;2022-09-24T03:31:11;5.37;;;4.50;;
66923;SDS011;53835;47.984;7.844;2022-09-24T03:33:42;4.27;;;3.87;;
66923;SDS011;53835;47.984;7.844;2022-09-24T03:36:14;4.03;;;3.30;;
66923;SDS011;53835;47.984;7.844;2022-09-24T03:38:42;3.90;;;3.60;;
66923;SDS011;53835;47.984;7.844;2022-09-24T03:41:11;4.37;;;3.50;;
66923;SDS011;53835;47.984;7.844;2022-09-24T03:43:39;6.23;;;3.80;;
66923;SDS011;53835;47.984;7.844;2022-09-24T03:46:06;3.20;;;2.90;;
66923;SDS011;53835;47.984;7.844;2022-09-24T03:48:35;4.83;;;3.13;;
66923;SDS011;53835;47.984;7.844;2022-09-24T03:51:03;5.77;;;3.20;;
66923;SDS011;53835;47.984;7.844;2022-09-24T03:53:31;5.20;;;3.20;;
66923;SDS011;53835;47.984;7.844;2022-09-24T03:55:59;4.10;;;3.00;;
66923;SDS011;53835;47.984;7.844;2022-09-24T03:58:28;4.00;;;2.70;;
66923;SDS011;53835;47.984;7.844;2022-09-24T04:00:57;4.87;;;3.40;;
66923;SDS011;53835;47.984;7.844;2022-09-24T04:03:24;3.27;;;2.80;;
66923;SDS011;53835;47.984;7.844;2022-09-24T04:05:52;4.13;;;2.60;;
66923;SDS011;53835;47.984;7.844;2022-09-24T04:08:19;2.93;;;2.47;;
66923;SDS011;53835;47.984;7.844;2022-09-24T04:10:47;2.93;;;2.60;;
66923;SDS011;53835;47.984;7.844;2022-09-24T04:13:15;3.53;;;2.70;;
66923;SDS011;53835;47.984;7.844;2022-09-24T04:15:42;5.63;;;2.60;;
66923;SDS011;53835;47.984;7.844;2022-09-24T04:18:09;3.63;;;2.77;;
66923;SDS011;53835;47.984;7.844;2022-09-24T04:20:37;3.20;;;2.73;;
66923;SDS011;53835;47.984;7.844;2022-09-24T04:23:05;4.83;;;2.83;;
66923;SDS011;53835;47.984;7.844;2022-09-24T04:25:32;4.73;;;2.70;;
66923;SDS011;53835;47.984;7.844;2022-09-24T04:28:04;3.07;;;2.77;;
66923;SDS011;53835;47.984;7.844;2022-09-24T04:30:32;4.13;;;2.90;;
66923;SDS011;53835;47.984;7.844;2022-09-24T04:33:00;3.83;;;2.53;;
66923;SDS011;53835;47.984;7.844;2022-09-24T04:35:29;2.70;;;2.47;;
66923;SDS011;53835;47.984;7.844;2022-09-24T04:37:56;3.93;;;2.70;;
66923;SDS011;53835;47.984;7.844;2022-09-24T04:40:25;2.83;;;2.50;;
66923;SDS011;53835;47.984;7.844;2022-09-24T04:42:52;2.47;;;2.27;;
66923;SDS011;53835;47.984;7.844;2022-09-24T04:45:20;3.20;;;2.90;;
66923;SDS011;53835;47.984;7.844;2022-09-24T04:47:49;2.80;;;2.60;;
66923;SDS011;53835;47.984;7.844;2022-09-24T04:50:18;3.90;;;2.67;;
66923;SDS011;53835;47.984;7.844;2022-09-24T04:52:46;3.03;;;2.50;;
66923;SDS011;53835;47.984;7.844;2022-09-24T04:55:13;2.77;;;2.53;;
66923;SDS011;53835;47.984;7.844;2022-09-24T04:57:41;3.10;;;2.50;;
66923;SDS011;53835;47.984;7.844;2022-09-24T05:00:10;3.00;;;2.40;;
66923;SDS011;53835;47.984;7.844;2022-09-24T05:02:41;3.70;;;2.80;;
66923;SDS011;53835;47.984;7.844;2022-09-24T05:05:08;4.37;;;2.70;;
66923;SDS011;53835;47.984;7.844;2022-09-24T05:07:36;3.23;;;2.93;;
66923;SDS011;53835;47.984;7.844;2022-09-24T05:10:05;3.83;;;2.80;;
66923;SDS011;53835;47.984;7.844;2022-09-24T05:12:32;3.90;;;2.80;;
66923;SDS011;53835;47.984;7.844;2022-09-24T05:15:01;2.80;;;2.50;;
66923;SDS011;53835;47.984;7.844;2022-09-24T05:17:29;4.80;;;3.00;;
66923;SDS011;53835;47.984;7.844;2022-09-24T05:19:56;3.10;;;2.80;;
66923;SDS011;53835;47.984;7.844;2022-09-24T05:22:24;5.57;;;3.67;;
66923;SDS011;53835;47.984;7.844;2022-09-24T05:24:56;2.93;;;2.40;;
66923;SDS011;53835;47.984;7.844;2022-09-24T05:27:23;3.30;;;2.70;;
66923;SDS011;53835;47.984;7.844;2022-09-24T05:29:51;3.33;;;3.03;;
66923;SDS011;53835;47.984;7.844;2022-09-24T05:32:18;3.83;;;3.00;;
66923;SDS011;53835;47.984;7.844;2022-09-24T05:34:46;3.17;;;2.87;;
66923;SDS011;53835;47.984;7.844;2022-09-24T05:37:14;7.07;;;3.10;;
66923;SDS011;53835;47.984;7.844;2022-09-24T05:39:42;3.63;;;2.60;;
66923;SDS011;53835;47.984;7.844;2022-09-24T05:42:09;5.17;;;3.10;;
66923;SDS011;53835;47.984;7.844;2022-09-24T05:44:39;3.10;;;2.70;;
66923;SDS011;53835;47.984;7.844;2022-09-24T05:47:06;4.13;;;2.63;;
66923;SDS011;53835;47.984;7.844;2022-09-24T05:49:34;2.80;;;2.60;;
66923;SDS011;53835;47.984;7.844;2022-09-24T05:52:01;3.00;;;2.60;;
66923;SDS011;53835;47.984;7.844;2022-09-24T05:54:29;3.53;;;2.73;;
66923;SDS011;53835;47.984;7.844;2022-09-24T05:56:56;3.00;;;2.70;;
66923;SDS011;53835;47.984;7.844;2022-09-24T05:59:23;2.90;;;2.70;;
66923;SDS011;53835;47.984;7.844;2022-09-24T06:01:50;3.27;;;2.70;;
66923;SDS011;53835;47.984;7.844;2022-09-24T06:04:18;3.27;;;2.60;;
66923;SDS011;53835;47.984;7.844;2022-09-24T06:06:45;2.97;;;2.70;;
66923;SDS011;53835;47.984;7.844;2022-09-24T06:09:12;3.23;;;2.60;;
66923;SDS011;53835;47.984;7.844;2022-09-24T06:11:40;4.33;;;2.87;;
66923;SDS011;53835;47.984;7.844;2022-09-24T06:14:07;2.80;;;2.57;;
66923;SDS011;53835;47.984;7.844;2022-09-24T06:16:35;2.97;;;2.60;;
66923;SDS011;53835;47.984;7.844;2022-09-24T06:19:02;2.90;;;2.50;;
66923;SDS011;53835;47.984;7.844;2022-09-24T06:21:29;2.87;;;2.63;;
66923;SDS011;53835;47.984;7.844;2022-09-24T06:23:56;2.60;;;2.40;;
66923;SDS011;53835;47.984;7.844;2022-09-24T06:26:24;3.00;;;2.70;;
66923;SDS011;53835;47.984;7.844;2022-09-24T06:28:51;2.80;;;2.60;;
66923;SDS011;53835;47.984;7.844;2022-09-24T06:31:18;2.90;;;2.70;;
66923;SDS011;53835;47.984;7.844;2022-09-24T06:33:46;4.00;;;3.10;;
66923;SDS011;53835;47.984;7.844;2022-09-24T06:36:13;4.00;;;3.50;;
66923;SDS011;53835;47.984;7.844;2022-09-24T06:38:40;3.20;;;2.63;;
66923;SDS011;53835;47.984;7.844;2022-09-24T06:41:09;3.13;;;2.80;;
66923;SDS011;53835;47.984;7.844;2022-09-24T06:43:37;3.77;;;2.90;;
66923;SDS011;53835;47.984;7.844;2022-09-24T06:46:04;3.40;;;3.10;;
66923;SDS011;53835;47.984;7.844;2022-09-24T06:48:32;3.70;;;2.60;;
66923;SDS011;53835;47.984;7.844;2022-09-24T06:50:59;3.10;;;2.80;;
66923;SDS011;53835;47.984;7.844;2022-09-24T06:53:26;3.10;;;2.90;;
66923;SDS011;53835;47.984;7.844;2022-09-24T06:55:54;3.87;;;2.90;;
66923;SDS011;53835;47.984;7.844;2022-09-24T06:58:23;3.97;;;2.90;;
66923;SDS011;53835;47.984;7.844;2022-09-24T07:00:51;3.47;;;2.83;;
66923;SDS011;53835;47.984;7.844;2022-09-24T07:03:18;4.10;;;2.80;;
66923;SDS011;53835;47.984;7.844;2022-09-24T07:05:46;3.23;;;2.93;;
66923;SDS011;53835;47.984;7.844;2022-09-24T07:08:13;3.33;;;2.90;;
66923;SDS011;53835;47.984;7.844;2022-09-24T07:10:44;2.60;;;2.40;;
66923;SDS011;53835;47.984;7.844;2022-09-24T07:13:14;3.10;;;2.80;;
66923;SDS011;53835;47.984;7.844;2022-09-24T07:15:42;3.10;;;2.80;;
66923;SDS011;53835;47.984;7.844;2022-09-24T07:18:10;3.43;;;2.60;;
66923;SDS011;53835;47.984;7.844;2022-09-24T07:20:38;3.50;;;3.20;;
66923;SDS011;53835;47.984;7.844;2022-09-24T07:23:06;4.10;;;3.10;;
66923;SDS011;53835;47.984;7.844;2022-09-24T07:25:34;3.27;;;2.93;;
66923;SDS011;53835;47.984;7.844;2022-09-24T07:28:07;3.63;;;3.13;;
66923;SDS011;53835;47.984;7.844;2022-09-24T07:30:31;3.50;;;3.20;;
66923;SDS011;53835;47.984;7.844;2022-09-24T07:32:58;3.53;;;3.13;;
66923;SDS011;53835;47.984;7.844;2022-09-24T07:35:26;4.03;;;3.30;;
66923;SDS011;53835;47.984;7.844;2022-09-24T07:37:57;3.80;;;3.13;;
66923;SDS011;53835;47.984;7.844;2022-09-24T07:40:24;4.33;;;3.30;;
66923;SDS011;53835;47.984;7.844;2022-09-24T07:42:52;3.53;;;3.23;;
66923;SDS011;53835;47.984;7.844;2022-09-24T07:45:21;3.67;;;3.07;;
66923;SDS011;53835;47.984;7.844;2022-09-24T07:47:58;4.70;;;3.23;;
66923;SDS011;53835;47.984;7.844;2022-09-24T07:50:26;4.20;;;3.10;;
66923;SDS011;53835;47.984;7.844;2022-09-24T07:52:54;3.87;;;3.20;;
66923;SDS011;53835;47.984;7.844;2022-09-24T07:55:22;3.50;;;3.00;;
66923;SDS011;53835;47.984;7.844;2022-09-24T07:57:50;3.20;;;2.80;;
66923;SDS011;53835;47.984;7.844;2022-09-24T08:00:19;3.53;;;3.23;;
66923;SDS011;53835;47.984;7.844;2022-09-24T08:02:46;3.50;;;3.20;;
66923;SDS011;53835;47.984;7.844;2022-09-24T08:05:14;3.47;;;3.17;;
66923;SDS011;53835;47.984;7.844;2022-09-24T08:07:41;3.77;;;2.80;;
66923;SDS011;53835;47.984;7.844;2022-09-24T08:10:09;3.93;;;2.80;;
66923;SDS011;53835;47.984;7.844;2022-09-24T08:12:36;13.13;;;3.27;;
66923;SDS011;53835;47.984;7.844;2022-09-24T08:15:04;4.40;;;3.10;;
66923;SDS011;53835;47.984;7.844;2022-09-24T08:17:32;3.13;;;2.83;;
66923;SDS011;53835;47.984;7.844;2022-09-24T08:19:59;4.53;;;3.20;;
66923;SDS011;53835;47.984;7.844;2022-09-24T08:22:26;5.20;;;3.20;;
66923;SDS011;53835;47.984;7.844;2022-09-24T08:24:54;4.90;;;3.37;;
66923;SDS011;53835;47.984;7.844;2022-09-24T08:27:23;4.27;;;3.20;;
66923;SDS011;53835;47.984;7.844;2022-09-24T08:29:50;3.73;;;3.10;;
66923;SDS011;53835;47.984;7.844;2022-09-24T08:32:18;3.00;;;2.80;;
66923;SDS011;53835;47.984;7.844;2022-09-24T08:34:45;4.17;;;3.10;;
66923;SDS011;53835;47.984;7.844;2022-09-24T08:37:12;2.90;;;2.60;;
66923;SDS011;53835;47.984;7.844;2022-09-24T08:39:39;2.97;;;2.53;;
66923;SDS011;53835;47.984;7.844;2022-09-24T08:42:11;4.03;;;2.43;;
66923;SDS011;53835;47.984;7.844;2022-09-24T08:44:43;2.70;;;2.50;;
66923;SDS011;53835;47.984;7.844;2022-09-24T08:50:14;3.47;;;2.83;;
66923;SDS011;53835;47.984;7.844;2022-09-24T08:55:16;2.70;;;2.50;;
66923;SDS011;53835;47.984;7.844;2022-09-24T08:57:53;2.40;;;2.20;;
66923;SDS011;53835;47.984;7.844;2022-09-24T09:00:16;3.27;;;2.40;;
66923;SDS011;53835;47.984;7.844;2022-09-24T09:05:22;2.50;;;2.30;;
66923;SDS011;53835;47.984;7.844;2022-09-24T09:10:30;2.93;;;2.33;;
66923;SDS011;53835;47.984;7.844;2022-09-24T09:13:09;2.63;;;2.30;;
66923;SDS011;53835;47.984;7.844;2022-09-24T09:15:35;2.20;;;2.00;;
66923;SDS011;53835;47.984;7.844;2022-09-24T09:18:03;3.15;;;2.17;;
66923;SDS011;53835;47.984;7.844;2022-09-24T09:20:37;2.37;;;2.15;;
66923;SDS011;53835;47.984;7.844;2022-09-24T09:23:02;2.37;;;2.17;;
66923;SDS011;53835;47.984;7.844;2022-09-24T09:25:30;2.57;;;2.10;;
66923;SDS011;53835;47.984;7.844;2022-09-24T09:28:11;2.77;;;2.23;;
66923;SDS011;53835;47.984;7.844;2022-09-24T09:30:47;3.00;;;2.37;;
66923;SDS011;53835;47.984;7.844;2022-09-24T09:41:10;2.20;;;2.00;;
66923;SDS011;53835;47.984;7.844;2022-09-24T09:43:34;4.23;;;2.03;;
66923;SDS011;53835;47.984;7.844;2022-09-24T09:46:17;2.50;;;2.30;;
66923;SDS011;53835;47.984;7.844;2022-09-24T09:48:44;2.97;;;2.10;;
66923;SDS011;53835;47.984;7.844;2022-09-24T09:51:15;4.17;;;2.40;;
66923;SDS011;53835;47.984;7.844;2022-09-24T09:53:40;2.30;;;1.90;;
66923;SDS011;53835;47.984;7.844;2022-09-24T09:56:09;2.58;;;1.95;;
66923;SDS011;53835;47.984;7.844;2022-09-24T09:58:43;2.37;;;2.17;;
66923;SDS011;53835;47.984;7.844;2022-09-24T10:01:12;3.33;;;2.30;;
66923;SDS011;53835;47.984;7.844;2022-09-24T10:03:47;2.95;;;2.42;;
66923;SDS011;53835;47.984;7.844;2022-09-24T10:08:50;2.35;;;2.15;;
66923;SDS011;53835;47.984;7.844;2022-09-24T10:11:18;2.87;;;2.60;;
66923;SDS011;53835;47.984;7.844;2022-09-24T10:13:45;2.60;;;2.40;;
66923;SDS011;53835;47.984;7.844;2022-09-24T10:16:12;2.30;;;1.95;;
66923;SDS011;53835;47.984;7.844;2022-09-24T10:18:46;2.55;;;2.35;;
66923;SDS011;53835;47.984;7.844;2022-09-24T10:21:35;2.85;;;2.00;;
66923;SDS011;53835;47.984;7.844;2022-09-24T10:23:44;2.40;;;2.20;;
66923;SDS011;53835;47.984;7.844;2022-09-24T10:26:15;2.30;;;2.10;;
66923;SDS011;53835;47.984;7.844;2022-09-24T10:28:46;2.37;;;2.17;;
66923;SDS011;53835;47.984;7.844;2022-09-24T10:31:37;2.30;;;2.10;;
66923;SDS011;53835;47.984;7.844;2022-09-24T10:34:01;2.05;;;1.85;;
66923;SDS011;53835;47.984;7.844;2022-09-24T10:36:30;1.70;;;1.60;;
66923;SDS011;53835;47.984;7.844;2022-09-24T10:39:02;2.37;;;1.82;;
66923;SDS011;53835;47.984;7.844;2022-09-24T10:41:29;2.08;;;1.92;;
66923;SDS011;53835;47.984;7.844;2022-09-24T10:43:59;1.80;;;1.70;;
66923;SDS011;53835;47.984;7.844;2022-09-24T10:49:03;2.77;;;1.90;;
66923;SDS011;53835;47.984;7.844;2022-09-24T10:51:39;1.98;;;1.80;;
66923;SDS011;53835;47.984;7.844;2022-09-24T10:56:52;1.80;;;1.70;;
66923;SDS011;53835;47.984;7.844;2022-09-24T11:12:12;2.25;;;1.80;;
66923;SDS011;53835;47.984;7.844;2022-09-24T11:17:37;2.83;;;1.80;;
66923;SDS011;53835;47.984;7.844;2022-09-24T11:30:25;1.80;;;1.70;;
66923;SDS011;53835;47.984;7.844;2022-09-24T11:38:15;2.77;;;2.00;;
66923;SDS011;53835;47.984;7.844;2022-09-24T11:46:18;1.75;;;1.65;;
66923;SDS011;53835;47.984;7.844;2022-09-24T11:51:15;1.70;;;1.60;;
66923;SDS011;53835;47.984;7.844;2022-09-24T11:53:42;2.10;;;1.90;;
66923;SDS011;53835;47.984;7.844;2022-09-24T11:56:14;1.80;;;1.70;;
66923;SDS011;53835;47.984;7.844;2022-09-24T11:58:42;1.98;;;1.70;;
66923;SDS011;53835;47.984;7.844;2022-09-24T12:01:14;2.60;;;1.87;;
66923;SDS011;53835;47.984;7.844;2022-09-24T12:03:43;2.85;;;2.08;;
66923;SDS011;53835;47.984;7.844;2022-09-24T12:06:12;1.90;;;1.80;;
66923;SDS011;53835;47.984;7.844;2022-09-24T12:11:41;2.30;;;2.10;;
66923;SDS011;53835;47.984;7.844;2022-09-24T12:14:11;2.98;;;2.40;;
66923;SDS011;53835;47.984;7.844;2022-09-24T12:16:38;2.10;;;1.90;;
66923;SDS011;53835;47.984;7.844;2022-09-24T12:19:13;2.98;;;2.27;;
66923;SDS011;53835;47.984;7.844;2022-09-24T12:21:36;4.60;;;2.30;;
66923;SDS011;53835;47.984;7.844;2022-09-24T12:24:13;2.55;;;2.20;;
66923;SDS011;53835;47.984;7.844;2022-09-24T12:26:38;2.55;;;2.22;;
66923;SDS011;53835;47.984;7.844;2022-09-24T12:29:13;2.52;;;2.12;;
66923;SDS011;53835;47.984;7.844;2022-09-24T12:32:02;2.33;;;2.10;;
66923;SDS011;53835;47.984;7.844;2022-09-24T12:37:23;2.62;;;2.20;;
66923;SDS011;53835;47.984;7.844;2022-09-24T12:39:59;2.30;;;2.10;;
66923;SDS011;53835;47.984;7.844;2022-09-24T12:42:23;1.90;;;1.80;;
66923;SDS011;53835;47.984;7.844;2022-09-24T12:44:53;2.20;;;2.00;;
66923;SDS011;53835;47.984;7.844;2022-09-24T12:47:22;2.02;;;1.82;;
66923;SDS011;53835;47.984;7.844;2022-09-24T12:49:54;2.08;;;1.98;;
66923;SDS011;53835;47.984;7.844;2022-09-24T12:52:26;2.80;;;2.05;;
66923;SDS011;53835;47.984;7.844;2022-09-24T12:54:54;2.00;;;1.90;;
66923;SDS011;53835;47.984;7.844;2022-09-24T12:57:25;2.15;;;1.95;;
66923;SDS011;53835;47.984;7.844;2022-09-24T12:59:54;2.00;;;1.77;;
66923;SDS011;53835;47.984;7.844;2022-09-24T13:02:26;1.95;;;1.85;;
66923;SDS011;53835;47.984;7.844;2022-09-24T13:07:37;2.50;;;2.30;;
66923;SDS011;53835;47.984;7.844;2022-09-24T13:12:44;2.60;;;2.40;;
66923;SDS011;53835;47.984;7.844;2022-09-24T13:17:47;2.98;;;2.30;;
66923;SDS011;53835;47.984;7.844;2022-09-24T13:20:17;2.77;;;2.00;;
66923;SDS011;53835;47.984;7.844;2022-09-24T13:22:53;2.42;;;2.20;;
66923;SDS011;53835;47.984;7.844;2022-09-24T13:25:18;2.83;;;2.37;;
66923;SDS011;53835;47.984;7.844;2022-09-24T13:27:54;2.50;;;2.30;;
66923;SDS011;53835;47.984;7.844;2022-09-24T13:30:21;2.22;;;2.05;;
66923;SDS011;53835;47.984;7.844;2022-09-24T13:32:58;2.67;;;2.15;;
66923;SDS011;53835;47.984;7.844;2022-09-24T13:35:28;2.33;;;2.12;;
66923;SDS011;53835;47.984;7.844;2022-09-24T13:38:14;2.85;;;2.10;;
66923;SDS011;53835;47.984;7.844;2022-09-24T13:40:37;2.50;;;2.30;;
66923;SDS011;53835;47.984;7.844;2022-09-24T13:43:13;2.70;;;2.50;;
66923;SDS011;53835;47.984;7.844;2022-09-24T13:45:41;2.67;;;2.30;;
66923;SDS011;53835;47.984;7.844;2022-09-24T13:48:54;2.80;;;2.60;;
66923;SDS011;53835;47.984;7.844;2022-09-24T13:50:47;2.98;;;2.17;;
66923;SDS011;53835;47.984;7.844;2022-09-24T13:53:18;14.33;;;9.85;;
66923;SDS011;53835;47.984;7.844;2022-09-24T13:55:46;2.95;;;2.27;;
66923;SDS011;53835;47.984;7.844;2022-09-24T13:58:30;3.15;;;2.40;;
66923;SDS011;53835;47.984;7.844;2022-09-24T14:01:09;2.55;;;2.10;;
66923;SDS011;53835;47.984;7.844;2022-09-24T14:03:31;2.30;;;2.08;;
66923;SDS011;53835;47.984;7.844;2022-09-24T14:06:08;2.80;;;2.50;;
66923;SDS011;53835;47.984;7.844;2022-09-24T14:08:27;2.52;;;2.30;;
66923;SDS011;53835;47.984;7.844;2022-09-24T14:11:05;2.37;;;2.17;;
66923;SDS011;53835;47.984;7.844;2022-09-24T14:13:35;2.58;;;2.37;;
66923;SDS011;53835;47.984;7.844;2022-09-24T14:16:08;3.22;;;2.45;;
66923;SDS011;53835;47.984;7.844;2022-09-24T14:18:35;2.87;;;2.08;;
66923;SDS011;53835;47.984;7.844;2022-09-24T14:21:06;2.22;;;2.00;;
66923;SDS011;53835;47.984;7.844;2022-09-24T14:23:37;2.77;;;2.17;;
66923;SDS011;53835;47.984;7.844;2022-09-24T14:26:04;2.40;;;2.20;;
66923;SDS011;53835;47.984;7.844;2022-09-24T14:28:32;5.95;;;2.58;;
66923;SDS011;53835;47.984;7.844;2022-09-24T14:31:00;2.22;;;2.10;;
66923;SDS011;53835;47.984;7.844;2022-09-24T14:33:29;3.50;;;2.75;;
66923;SDS011;53835;47.984;7.844;2022-09-24T14:35:57;2.58;;;2.37;;
66923;SDS011;53835;47.984;7.844;2022-09-24T14:38:26;3.62;;;2.30;;
66923;SDS011;53835;47.984;7.844;2022-09-24T14:41:00;2.45;;;2.25;;
66923;SDS011;53835;47.984;7.844;2022-09-24T14:43:30;2.27;;;2.08;;
66923;SDS011;53835;47.984;7.844;2022-09-24T14:46:11;2.55;;;2.35;;
66923;SDS011;53835;47.984;7.844;2022-09-24T14:48:33;2.80;;;2.58;;
66923;SDS011;53835;47.984;7.844;2022-09-24T14:51:00;3.20;;;2.90;;
66923;SDS011;53835;47.984;7.844;2022-09-24T14:53:29;2.77;;;2.55;;
66923;SDS011;53835;47.984;7.844;2022-09-24T14:55:58;2.95;;;2.58;;
66923;SDS011;53835;47.984;7.844;2022-09-24T15:00:58;3.05;;;2.75;;
66923;SDS011;53835;47.984;7.844;2022-09-24T15:03:29;3.95;;;2.83;;
66923;SDS011;53835;47.984;7.844;2022-09-24T15:06:02;3.60;;;2.60;;
66923;SDS011;53835;47.984;7.844;2022-09-24T15:08:30;2.50;;;2.30;;
66923;SDS011;53835;47.984;7.844;2022-09-24T15:10:58;3.10;;;2.80;;
66923;SDS011;53835;47.984;7.844;2022-09-24T15:13:30;3.08;;;2.70;;
66923;SDS011;53835;47.984;7.844;2022-09-24T15:18:32;3.17;;;2.50;;
66923;SDS011;53835;47.984;7.844;2022-09-24T15:21:02;5.75;;;2.50;;
66923;SDS011;53835;47.984;7.844;2022-09-24T15:23:31;3.35;;;2.30;;
66923;SDS011;53835;47.984;7.844;2022-09-24T15:25:59;6.47;;;5.87;;
66923;SDS011;53835;47.984;7.844;2022-09-24T15:28:26;3.08;;;2.27;;
66923;SDS011;53835;47.984;7.844;2022-09-24T15:30:55;2.10;;;1.90;;
66923;SDS011;53835;47.984;7.844;2022-09-24T15:33:22;2.00;;;1.90;;
66923;SDS011;53835;47.984;7.844;2022-09-24T15:35:49;4.03;;;2.05;;
66923;SDS011;53835;47.984;7.844;2022-09-24T15:38:17;9.75;;;2.42;;
66923;SDS011;53835;47.984;7.844;2022-09-24T15:40:46;4.30;;;2.22;;
66923;SDS011;53835;47.984;7.844;2022-09-24T15:43:22;3.27;;;2.10;;
66923;SDS011;53835;47.984;7.844;2022-09-24T15:45:49;3.22;;;2.17;;
66923;SDS011;53835;47.984;7.844;2022-09-24T15:48:20;3.50;;;2.10;;
66923;SDS011;53835;47.984;7.844;2022-09-24T15:50:47;2.77;;;2.02;;
66923;SDS011;53835;47.984;7.844;2022-09-24T15:53:17;2.40;;;2.20;;
66923;SDS011;53835;47.984;7.844;2022-09-24T15:55:44;2.62;;;2.42;;
66923;SDS011;53835;47.984;7.844;2022-09-24T15:58:15;3.00;;;2.27;;
66923;SDS011;53835;47.984;7.844;2022-09-24T16:00:42;2.75;;;2.27;;
66923;SDS011;53835;47.984;7.844;2022-09-24T16:03:13;2.67;;;2.42;;
66923;SDS011;53835;47.984;7.844;2022-09-24T16:05:38;3.47;;;2.30;;
66923;SDS011;53835;47.984;7.844;2022-09-24T16:08:05;3.33;;;2.50;;
66923;SDS011;53835;47.984;7.844;2022-09-24T16:10:33;2.67;;;2.47;;
66923;SDS011;53835;47.984;7.844;2022-09-24T16:13:01;3.10;;;2.80;;
66923;SDS011;53835;47.984;7.844;2022-09-24T16:15:28;2.70;;;2.50;;
66923;SDS011;53835;47.984;7.844;2022-09-24T16:17:55;3.02;;;2.40;;
66923;SDS011;53835;47.984;7.844;2022-09-24T16:20:22;5.25;;;2.62;;
66923;SDS011;53835;47.984;7.844;2022-09-24T16:22:50;3.00;;;2.50;;
66923;SDS011;53835;47.984;7.844;2022-09-24T16:25:17;2.67;;;2.47;;
66923;SDS011;53835;47.984;7.844;2022-09-24T16:27:44;3.33;;;2.55;;
66923;SDS011;53835;47.984;7.844;2022-09-24T16:30:11;4.00;;;2.40;;
66923;SDS011;53835;47.984;7.844;2022-09-24T16:32:39;5.37;;;2.92;;
66923;SDS011;53835;47.984;7.844;2022-09-24T16:35:06;2.95;;;2.70;;
66923;SDS011;53835;47.984;7.844;2022-09-24T16:37:35;3.00;;;2.70;;
66923;SDS011;53835;47.984;7.844;2022-09-24T16:40:03;2.27;;;2.17;;
66923;SDS011;53835;47.984;7.844;2022-09-24T16:42:30;2.53;;;2.33;;
66923;SDS011;53835;47.984;7.844;2022-09-24T16:44:57;2.87;;;2.58;;